createdAt,value
2022-12-31T00:01:20.941Z,96984.88
2022-12-31T00:03:49.508Z,96992.31
2022-12-31T00:06:22.809Z,96988.53
2022-12-31T00:08:52.652Z,96990.63
2022-12-31T00:11:21.384Z,96986.34
2022-12-31T00:13:49.934Z,96984.19
2022-12-31T00:16:21.266Z,96996.50
2022-12-31T00:18:50.986Z,96994.06
2022-12-31T00:21:20.996Z,96994.63
2022-12-31T00:23:49.687Z,96993.78
2022-12-31T00:26:19.074Z,96988.41
2022-12-31T00:28:47.337Z,96989.47
2022-12-31T00:31:17.686Z,96991.06
2022-12-31T00:33:46.801Z,96990.00
2022-12-31T00:36:17.045Z,96996.91
2022-12-31T00:38:47.863Z,96995.22
2022-12-31T00:41:17.001Z,96988.47
2022-12-31T00:43:45.715Z,96988.44
2022-12-31T00:46:14.310Z,96996.34
2022-12-31T00:49:07.509Z,96995.09
2022-12-31T00:51:35.782Z,96993.38
2022-12-31T00:54:05.559Z,97005.16
2022-12-31T00:56:33.755Z,97012.06
2022-12-31T00:59:02.074Z,97010.44
2022-12-31T01:01:31.926Z,97020.88
2022-12-31T01:04:02.711Z,97032.09
2022-12-31T01:06:30.847Z,97024.94
2022-12-31T01:08:59.339Z,97025.13
2022-12-31T01:11:30.065Z,97028.94
2022-12-31T01:14:00.038Z,97034.56
2022-12-31T01:16:30.375Z,97042.63
2022-12-31T01:18:59.816Z,97042.69
2022-12-31T01:21:28.035Z,97053.69
2022-12-31T01:23:56.090Z,97051.75
2022-12-31T01:26:24.278Z,97052.75
2022-12-31T01:28:53.878Z,97062.31
2022-12-31T01:31:23.525Z,97064.63
2022-12-31T01:33:52.342Z,97068.09
2022-12-31T01:36:26.019Z,97069.63
2022-12-31T01:38:56.534Z,97074.38
2022-12-31T01:41:26.311Z,97078.66
2022-12-31T01:43:57.500Z,97069.25
2022-12-31T01:46:29.791Z,97064.31
2022-12-31T01:49:00.164Z,97072.66
2022-12-31T01:51:30.999Z,97062.19
2022-12-31T01:53:59.966Z,97069.94
2022-12-31T01:56:28.098Z,97071.34
2022-12-31T01:58:58.118Z,97071.34
2022-12-31T02:01:29.715Z,97076.91
2022-12-31T02:03:58.212Z,97071.78
2022-12-31T02:06:30.488Z,97071.16
2022-12-31T02:08:59.258Z,97077.22
2022-12-31T02:11:29.503Z,97068.00
2022-12-31T02:14:01.886Z,97069.97
2022-12-31T02:16:35.845Z,97061.34
2022-12-31T02:19:13.927Z,97060.75
2022-12-31T02:21:48.739Z,97058.41
2022-12-31T02:24:44.928Z,97050.81
2022-12-31T02:27:15.578Z,97064.06
2022-12-31T02:30:07.257Z,97061.22
2022-12-31T02:32:56.012Z,97061.41
2022-12-31T02:35:28.382Z,97056.03
2022-12-31T02:38:01.545Z,97058.44
2022-12-31T02:40:29.753Z,97065.00
2022-12-31T02:42:57.920Z,97061.81
2022-12-31T02:45:31.186Z,97065.72
2022-12-31T02:48:11.332Z,97069.28
2022-12-31T02:50:55.694Z,97071.19
2022-12-31T02:53:38.217Z,97073.56
2022-12-31T02:56:32.599Z,97068.59
2022-12-31T02:59:21.839Z,97067.97
2022-12-31T03:02:12.173Z,97076.56
2022-12-31T03:04:41.421Z,97080.63
2022-12-31T03:07:11.002Z,97079.25
2022-12-31T03:09:39.468Z,97082.13
2022-12-31T03:12:26.808Z,97085.13
2022-12-31T03:14:54.955Z,97086.34
2022-12-31T03:17:24.765Z,97096.78
2022-12-31T03:20:10.573Z,97094.31
2022-12-31T03:22:41.726Z,97098.09
2022-12-31T03:25:30.518Z,97095.88
2022-12-31T03:27:58.843Z,97100.69
2022-12-31T03:30:27.139Z,97112.47
2022-12-31T03:32:57.388Z,97113.03
2022-12-31T03:35:27.180Z,97107.66
2022-12-31T03:37:56.480Z,97105.19
2022-12-31T03:40:26.523Z,97104.91
2022-12-31T03:42:55.173Z,97108.75
2022-12-31T03:45:23.614Z,97110.88
2022-12-31T03:47:52.188Z,97108.69
2022-12-31T03:50:22.088Z,97105.88
2022-12-31T03:52:50.260Z,97110.28
2022-12-31T03:55:18.573Z,97118.16
2022-12-31T03:57:46.792Z,97112.66
2022-12-31T04:00:18.736Z,97124.63
2022-12-31T04:02:47.951Z,97124.53
2022-12-31T04:05:17.267Z,97126.09
2022-12-31T04:07:47.057Z,97118.94
2022-12-31T04:10:17.718Z,97128.44
2022-12-31T04:12:46.765Z,97123.44
2022-12-31T04:15:18.125Z,97129.19
2022-12-31T04:17:46.327Z,97123.59
2022-12-31T04:20:14.533Z,97120.44
2022-12-31T04:22:44.066Z,97127.09
2022-12-31T04:25:13.979Z,97130.50
2022-12-31T04:27:43.797Z,97131.47
2022-12-31T04:30:13.853Z,97127.19
2022-12-31T04:32:42.804Z,97139.75
2022-12-31T04:35:11.834Z,97139.38
2022-12-31T04:37:40.030Z,97135.81
2022-12-31T04:40:09.916Z,97141.38
2022-12-31T04:42:39.933Z,97148.47
2022-12-31T04:45:09.194Z,97145.69
2022-12-31T04:47:46.637Z,97139.38
2022-12-31T04:50:14.838Z,97136.88
2022-12-31T04:52:43.240Z,97135.38
2022-12-31T04:55:11.913Z,97136.38
2022-12-31T04:57:42.117Z,97128.78
2022-12-31T05:00:11.298Z,97137.34
2022-12-31T05:02:39.808Z,97125.19
2022-12-31T05:05:08.769Z,97146.91
2022-12-31T05:07:36.875Z,97137.56
2022-12-31T05:10:05.946Z,97146.81
2022-12-31T05:12:34.139Z,97162.50
2022-12-31T05:15:04.026Z,97163.06
2022-12-31T05:17:32.351Z,97165.00
2022-12-31T05:20:00.513Z,97170.75
2022-12-31T05:22:32.062Z,97176.81
2022-12-31T05:25:00.901Z,97177.84
2022-12-31T05:27:31.249Z,97177.94
2022-12-31T05:29:59.777Z,97174.25
2022-12-31T05:32:29.287Z,97179.16
2022-12-31T05:34:57.899Z,97181.22
2022-12-31T05:37:25.996Z,97176.47
2022-12-31T05:39:54.086Z,97179.63
2022-12-31T05:42:22.247Z,97178.53
2022-12-31T05:44:50.614Z,97190.00
2022-12-31T05:47:19.003Z,97182.59
2022-12-31T05:49:48.429Z,97184.72
2022-12-31T05:52:16.790Z,97183.97
2022-12-31T05:54:44.863Z,97185.00
2022-12-31T05:57:13.363Z,97175.31
2022-12-31T05:59:41.661Z,97176.91
2022-12-31T06:02:09.991Z,97186.34
2022-12-31T06:04:38.107Z,97191.13
2022-12-31T06:07:07.644Z,97190.53
2022-12-31T06:09:35.751Z,97183.78
2022-12-31T06:12:03.985Z,97194.06
2022-12-31T06:14:32.316Z,97192.06
2022-12-31T06:17:00.892Z,97193.25
2022-12-31T06:19:29.087Z,97198.72
2022-12-31T06:21:57.421Z,97199.09
2022-12-31T06:24:26.934Z,97201.34
2022-12-31T06:26:55.030Z,97207.63
2022-12-31T06:29:23.142Z,97210.72
2022-12-31T06:31:51.314Z,97214.88
2022-12-31T06:34:19.629Z,97199.19
2022-12-31T06:36:47.707Z,97195.19
2022-12-31T06:39:15.935Z,97205.88
2022-12-31T06:41:45.387Z,97191.09
2022-12-31T06:44:14.908Z,97178.84
2022-12-31T06:46:43.045Z,97208.34
2022-12-31T06:49:11.382Z,97203.16
2022-12-31T06:51:39.451Z,97209.13
2022-12-31T06:54:07.889Z,97212.63
2022-12-31T06:56:36.922Z,97215.97
2022-12-31T06:59:06.923Z,97218.88
2022-12-31T07:01:47.157Z,97222.38
2022-12-31T07:04:29.552Z,97216.69
2022-12-31T07:07:05.063Z,97223.16
2022-12-31T07:09:39.727Z,97228.22
2022-12-31T07:12:15.251Z,97217.53
2022-12-31T07:14:47.848Z,97218.56
2022-12-31T07:17:23.924Z,97224.03
2022-12-31T07:19:58.744Z,97221.34
2022-12-31T07:22:27.603Z,97225.16
2022-12-31T07:24:56.411Z,97222.09
2022-12-31T07:27:37.392Z,97231.28
2022-12-31T07:30:12.868Z,97222.78
2022-12-31T07:33:04.016Z,97234.19
2022-12-31T07:35:38.662Z,97241.63
2022-12-31T07:38:11.797Z,97242.41
2022-12-31T07:40:53.181Z,97248.41
2022-12-31T07:43:30.048Z,97249.03
2022-12-31T07:46:07.488Z,97255.00
2022-12-31T07:48:36.032Z,97254.63
2022-12-31T07:51:04.769Z,97269.19
2022-12-31T07:53:33.333Z,97259.22
2022-12-31T07:56:02.615Z,97271.59
2022-12-31T07:58:47.212Z,97275.09
2022-12-31T08:01:21.005Z,97278.19
2022-12-31T08:03:54.322Z,97281.59
2022-12-31T08:06:27.579Z,97289.78
2022-12-31T08:09:01.512Z,97291.16
2022-12-31T08:11:34.103Z,97298.16
2022-12-31T08:14:02.732Z,97299.13
2022-12-31T08:16:32.795Z,97300.16
2022-12-31T08:19:01.295Z,97306.13
2022-12-31T08:21:38.630Z,97319.03
2022-12-31T08:24:15.087Z,97314.22
2022-12-31T08:26:53.006Z,97292.47
2022-12-31T08:29:31.718Z,97308.38
2022-12-31T08:32:07.224Z,97314.25
2022-12-31T08:34:40.152Z,97319.66
2022-12-31T08:37:10.403Z,97319.16
2022-12-31T08:39:51.167Z,97315.94
2022-12-31T08:42:23.969Z,97316.75
2022-12-31T08:44:59.339Z,97318.34
2022-12-31T08:47:38.448Z,97314.56
2022-12-31T08:50:08.473Z,97318.53
2022-12-31T08:52:37.266Z,97318.13
2022-12-31T08:55:06.596Z,97318.63
2022-12-31T08:57:39.581Z,97314.91
2022-12-31T09:00:10.763Z,97319.91
2022-12-31T09:03:04.129Z,97315.91
2022-12-31T09:05:34.174Z,97328.06
2022-12-31T09:08:09.631Z,97332.25
2022-12-31T09:10:42.294Z,97329.44
2022-12-31T09:13:16.857Z,97331.03
2022-12-31T09:15:48.755Z,97327.34
2022-12-31T09:18:19.304Z,97326.84
2022-12-31T09:20:47.989Z,97328.28
2022-12-31T09:23:16.657Z,97324.78
2022-12-31T09:25:58.800Z,97329.06
2022-12-31T09:28:37.619Z,97331.25
2022-12-31T09:31:12.377Z,97322.19
2022-12-31T09:33:50.200Z,97328.06
2022-12-31T09:36:20.728Z,97320.47
2022-12-31T09:38:54.107Z,97311.78
2022-12-31T09:41:57.999Z,97317.06
2022-12-31T09:45:15.185Z,97313.44
2022-12-31T09:48:09.795Z,97315.34
2022-12-31T09:50:51.179Z,97304.41
2022-12-31T09:53:47.755Z,97310.81
2022-12-31T09:56:22.065Z,97317.59
2022-12-31T09:58:59.122Z,97312.03
2022-12-31T10:01:37.474Z,97329.66
2022-12-31T10:04:26.011Z,97328.81
2022-12-31T10:07:07.313Z,97327.09
2022-12-31T10:09:51.739Z,97314.63
2022-12-31T10:12:48.042Z,97316.50
2022-12-31T10:15:47.959Z,97326.75
2022-12-31T10:18:28.699Z,97317.31
2022-12-31T10:21:07.540Z,97320.38
2022-12-31T10:24:04.266Z,97319.16
2022-12-31T10:26:44.066Z,97323.25
2022-12-31T10:29:25.494Z,97324.06
2022-12-31T10:32:07.823Z,97322.03
2022-12-31T10:34:48.802Z,97312.34
2022-12-31T10:37:19.152Z,97316.94
2022-12-31T10:39:56.229Z,97317.31
2022-12-31T10:42:59.865Z,97319.88
2022-12-31T10:45:52.690Z,97311.78
2022-12-31T10:49:05.179Z,97309.06
2022-12-31T10:51:58.774Z,97313.88
2022-12-31T10:55:14.393Z,97311.19
2022-12-31T10:58:04.348Z,97304.03
2022-12-31T11:00:36.528Z,97311.03
2022-12-31T11:03:55.656Z,97315.00
2022-12-31T11:07:14.726Z,97312.97
2022-12-31T11:10:09.397Z,97321.22
2022-12-31T11:13:16.173Z,97312.06
2022-12-31T11:15:56.778Z,97299.06
2022-12-31T11:18:30.675Z,97308.22
2022-12-31T11:21:21.612Z,97306.00
2022-12-31T11:23:59.632Z,97312.66
2022-12-31T11:26:36.999Z,97307.78
2022-12-31T11:29:14.349Z,97316.34
2022-12-31T11:31:53.239Z,97307.94
2022-12-31T11:34:32.814Z,97305.75
2022-12-31T11:37:11.969Z,97300.13
2022-12-31T11:39:48.495Z,97306.34
2022-12-31T11:42:21.941Z,97308.81
2022-12-31T11:44:58.927Z,97298.47
2022-12-31T11:48:27.936Z,97305.81
2022-12-31T11:50:43.856Z,97301.38
2022-12-31T11:53:43.570Z,97298.88
2022-12-31T11:56:17.337Z,97306.03
2022-12-31T11:58:48.167Z,97300.31
2022-12-31T12:01:21.918Z,97294.31
2022-12-31T12:03:50.547Z,97291.81
2022-12-31T12:06:20.898Z,97290.56
2022-12-31T12:08:49.615Z,97288.22
2022-12-31T12:11:21.001Z,97289.31
2022-12-31T12:13:49.657Z,97288.38
2022-12-31T12:16:21.470Z,97285.81
2022-12-31T12:18:51.798Z,97290.84
2022-12-31T12:21:22.301Z,97285.59
2022-12-31T12:23:57.865Z,97274.34
2022-12-31T12:26:34.409Z,97276.88
2022-12-31T12:29:10.753Z,97268.13
2022-12-31T12:31:40.447Z,97272.28
2022-12-31T12:34:23.492Z,97268.81
2022-12-31T12:36:51.786Z,97259.75
2022-12-31T12:39:22.934Z,97263.72
2022-12-31T12:42:02.385Z,97258.22
2022-12-31T12:44:30.837Z,97249.84
2022-12-31T12:47:00.800Z,97258.13
2022-12-31T12:49:31.270Z,97253.66
2022-12-31T12:52:19.106Z,97255.28
2022-12-31T12:55:00.788Z,97246.88
2022-12-31T12:57:37.845Z,97248.63
2022-12-31T13:00:17.473Z,97246.56
2022-12-31T13:03:03.362Z,97253.41
2022-12-31T13:05:41.248Z,97246.88
2022-12-31T13:08:20.647Z,97241.00
2022-12-31T13:11:07.430Z,97240.03
2022-12-31T13:13:41.727Z,97247.53
2022-12-31T13:16:15.135Z,97240.03
2022-12-31T13:18:54.303Z,97235.91
2022-12-31T13:21:32.347Z,97236.38
2022-12-31T13:24:08.080Z,97236.41
2022-12-31T13:26:41.087Z,97235.44
2022-12-31T13:29:15.083Z,97234.19
2022-12-31T13:31:44.543Z,97221.75
2022-12-31T13:34:15.875Z,97232.41
2022-12-31T13:36:45.972Z,97235.25
2022-12-31T13:39:17.345Z,97234.00
2022-12-31T13:41:50.755Z,97227.81
2022-12-31T13:44:28.636Z,97227.81
2022-12-31T13:47:00.461Z,97229.41
2022-12-31T13:49:33.300Z,97236.22
2022-12-31T13:52:06.627Z,97237.50
2022-12-31T13:54:39.558Z,97227.81
2022-12-31T13:57:14.075Z,97231.47
2022-12-31T13:59:44.546Z,97234.97
2022-12-31T14:02:27.360Z,97233.84
2022-12-31T14:05:01.319Z,97243.06
2022-12-31T14:07:38.970Z,97247.22
2022-12-31T14:10:14.571Z,97250.41
2022-12-31T14:12:48.870Z,97245.78
2022-12-31T14:15:25.338Z,97252.94
2022-12-31T14:18:01.080Z,97248.81
2022-12-31T14:20:36.101Z,97244.53
2022-12-31T14:23:15.151Z,97242.13
2022-12-31T14:25:48.626Z,97248.81
2022-12-31T14:28:19.224Z,97247.81
2022-12-31T14:30:52.015Z,97255.13
2022-12-31T14:33:33.377Z,97249.88
2022-12-31T14:36:18.738Z,97257.19
2022-12-31T14:38:58.038Z,97263.06
2022-12-31T14:41:44.692Z,97273.06
2022-12-31T14:44:26.688Z,97265.56
2022-12-31T14:47:03.947Z,97266.22
2022-12-31T14:49:39.849Z,97263.63
2022-12-31T14:52:22.456Z,97269.31
2022-12-31T14:54:59.607Z,97266.75
2022-12-31T14:57:54.343Z,97273.88
2022-12-31T15:00:29.806Z,97271.28
2022-12-31T15:02:59.661Z,97271.59
2022-12-31T15:05:31.994Z,97276.81
2022-12-31T15:08:31.028Z,97283.75
2022-12-31T15:11:32.431Z,97268.19
2022-12-31T15:14:23.340Z,97271.63
2022-12-31T15:16:55.711Z,97262.94
2022-12-31T15:20:01.598Z,97275.28
2022-12-31T15:22:37.737Z,97266.13
2022-12-31T15:25:22.585Z,97266.91
2022-12-31T15:27:51.236Z,97268.53
2022-12-31T15:30:35.250Z,97280.72
2022-12-31T15:33:04.864Z,97280.81
2022-12-31T15:35:35.012Z,97275.56
2022-12-31T15:38:05.296Z,97266.56
2022-12-31T15:40:43.816Z,97269.97
2022-12-31T15:43:17.747Z,97274.59
2022-12-31T15:45:48.244Z,97271.13
2022-12-31T15:48:22.117Z,97276.59
2022-12-31T15:50:50.993Z,97275.78
2022-12-31T15:53:28.657Z,97278.81
2022-12-31T15:55:59.933Z,97277.84
2022-12-31T15:58:31.473Z,97284.53
2022-12-31T16:01:11.592Z,97282.94
2022-12-31T16:03:43.677Z,97280.22
2022-12-31T16:06:13.390Z,97289.81
2022-12-31T16:08:45.322Z,97289.22
2022-12-31T16:11:14.988Z,97284.09
2022-12-31T16:13:45.810Z,97289.97
2022-12-31T16:16:22.214Z,97300.53
2022-12-31T16:18:51.288Z,97300.16
2022-12-31T16:21:40.648Z,97294.78
2022-12-31T16:24:27.547Z,97305.75
2022-12-31T16:26:58.543Z,97304.59
2022-12-31T16:29:27.097Z,97302.41
2022-12-31T16:31:55.344Z,97295.50
2022-12-31T16:34:25.189Z,97295.50
2022-12-31T16:36:57.512Z,97291.72
2022-12-31T16:39:28.432Z,97293.31
2022-12-31T16:42:19.615Z,97289.09
2022-12-31T16:44:48.199Z,97296.66
2022-12-31T16:47:20.213Z,97301.84
2022-12-31T16:49:50.947Z,97296.75
2022-12-31T16:52:27.568Z,97299.00
2022-12-31T16:54:56.170Z,97295.31
2022-12-31T16:57:27.860Z,97291.72
2022-12-31T16:59:58.364Z,97295.16
2022-12-31T17:02:29.726Z,97295.84
2022-12-31T17:04:57.960Z,97292.94
2022-12-31T17:07:28.207Z,97285.47
2022-12-31T17:10:03.378Z,97287.13
2022-12-31T17:13:00.672Z,97282.56
2022-12-31T17:15:26.390Z,97289.31
2022-12-31T17:17:56.353Z,97297.81
2022-12-31T17:20:26.944Z,97291.56
2022-12-31T17:22:57.915Z,97284.59
2022-12-31T17:25:27.596Z,97287.78
2022-12-31T17:28:00.199Z,97287.28
2022-12-31T17:30:41.357Z,97295.06
2022-12-31T17:33:30.988Z,97290.75
2022-12-31T17:36:15.369Z,97298.34
2022-12-31T17:38:43.689Z,97294.09
2022-12-31T17:41:24.280Z,97291.88
2022-12-31T17:43:55.799Z,97301.50
2022-12-31T17:46:25.344Z,97296.13
2022-12-31T17:48:56.155Z,97292.03
2022-12-31T17:51:24.761Z,97295.53
2022-12-31T17:53:52.913Z,97297.50
2022-12-31T17:56:21.109Z,97303.69
2022-12-31T17:58:51.598Z,97295.03
2022-12-31T18:01:23.483Z,97306.38
2022-12-31T18:03:52.595Z,97317.63
2022-12-31T18:06:20.712Z,97321.63
2022-12-31T18:08:48.872Z,97314.53
2022-12-31T18:11:20.032Z,97317.91
2022-12-31T18:13:48.351Z,97325.22
2022-12-31T18:16:16.904Z,97329.31
2022-12-31T18:18:46.752Z,97320.13
2022-12-31T18:21:19.227Z,97308.69
2022-12-31T18:23:48.230Z,97320.34
2022-12-31T18:26:17.934Z,97316.47
2022-12-31T18:28:46.531Z,97323.19
2022-12-31T18:31:15.652Z,97323.66
2022-12-31T18:33:43.827Z,97324.69
2022-12-31T18:36:15.958Z,97319.03
2022-12-31T18:38:44.002Z,97314.75
2022-12-31T18:41:17.195Z,97316.34
2022-12-31T18:43:45.287Z,97313.88
2022-12-31T18:46:14.051Z,97313.09
2022-12-31T18:48:42.601Z,97315.50
2022-12-31T18:51:15.752Z,97315.50
2022-12-31T18:53:43.827Z,97321.44
2022-12-31T18:56:13.415Z,97314.00
2022-12-31T18:58:41.695Z,97321.13
2022-12-31T19:01:25.512Z,97317.38
2022-12-31T19:03:54.063Z,97335.88
2022-12-31T19:06:23.896Z,97349.56
2022-12-31T19:08:52.993Z,97352.94
2022-12-31T19:11:21.362Z,97360.50
2022-12-31T19:13:49.781Z,97364.25
2022-12-31T19:16:18.365Z,97346.75
2022-12-31T19:18:47.483Z,97338.91
2022-12-31T19:21:17.701Z,97367.28
2022-12-31T19:23:47.630Z,97374.31
2022-12-31T19:26:17.302Z,97353.44
2022-12-31T19:28:46.500Z,97355.53
2022-12-31T19:31:15.015Z,97350.25
2022-12-31T19:33:43.303Z,97357.97
2022-12-31T19:36:16.175Z,97368.13
2022-12-31T19:38:44.786Z,97364.69
2022-12-31T19:41:17.280Z,97360.34
2022-12-31T19:43:45.380Z,97374.50
2022-12-31T19:46:14.593Z,97380.69
2022-12-31T19:48:42.857Z,97369.44
2022-12-31T19:51:12.837Z,97372.69
2022-12-31T19:53:40.927Z,97379.59
2022-12-31T19:56:12.323Z,97383.91
2022-12-31T19:58:41.759Z,97377.03
2022-12-31T20:01:15.510Z,97368.41
2022-12-31T20:03:43.672Z,97369.16
2022-12-31T20:06:11.878Z,97374.22
2022-12-31T20:08:43.343Z,97374.50
2022-12-31T20:11:12.834Z,97373.72
2022-12-31T20:13:42.938Z,97375.56
2022-12-31T20:16:12.894Z,97375.03
2022-12-31T20:18:42.241Z,97391.34
2022-12-31T20:21:11.853Z,97391.34
2022-12-31T20:23:40.007Z,97391.63
2022-12-31T20:26:08.536Z,97394.59
2022-12-31T20:28:36.906Z,97397.81
2022-12-31T20:31:08.128Z,97401.00
2022-12-31T20:33:36.324Z,97411.22
2022-12-31T20:36:05.523Z,97416.19
2022-12-31T20:38:33.884Z,97430.13
2022-12-31T20:41:05.436Z,97418.63
2022-12-31T20:43:34.299Z,97427.44
2022-12-31T20:46:14.438Z,97414.59
2022-12-31T20:48:43.710Z,97417.00
2022-12-31T20:51:12.131Z,97410.59
2022-12-31T20:53:40.279Z,97411.91
2022-12-31T20:56:09.873Z,97411.91
2022-12-31T20:58:38.544Z,97403.34
2022-12-31T21:01:10.685Z,97396.91
2022-12-31T21:06:29.895Z,97401.75
2022-12-31T21:08:59.813Z,97401.72
2022-12-31T21:11:45.539Z,97407.66
2022-12-31T21:14:13.691Z,97402.53
2022-12-31T21:16:43.574Z,97402.81
2022-12-31T21:19:11.713Z,97404.41
2022-12-31T21:21:40.004Z,97391.56
2022-12-31T21:24:08.614Z,97393.44
2022-12-31T21:26:37.065Z,97386.50
2022-12-31T21:29:05.337Z,97387.00
2022-12-31T21:31:33.532Z,97400.41
2022-12-31T21:34:03.671Z,97398.00
2022-12-31T21:36:32.252Z,97394.50
2022-12-31T21:39:00.619Z,97401.72
2022-12-31T21:41:46.634Z,97397.47
2022-12-31T21:44:14.775Z,97397.72
2022-12-31T21:47:15.854Z,97392.91
2022-12-31T21:49:32.444Z,97397.44
2022-12-31T21:52:18.104Z,97403.91
2022-12-31T21:55:03.854Z,97399.63
2022-12-31T21:57:46.225Z,97406.53
2022-12-31T22:00:43.037Z,97413.97
2022-12-31T22:03:31.805Z,97410.13
2022-12-31T22:06:03.073Z,97407.19
2022-12-31T22:08:32.236Z,97406.69
2022-12-31T22:11:00.383Z,97406.75
2022-12-31T22:13:28.689Z,97406.50
2022-12-31T22:16:04.241Z,97404.91
2022-12-31T22:18:35.531Z,97403.75
2022-12-31T22:21:12.296Z,97398.44
2022-12-31T22:23:47.078Z,97401.66
2022-12-31T22:26:17.253Z,97405.69
2022-12-31T22:28:46.543Z,97399.56
2022-12-31T22:31:15.981Z,97393.13
2022-12-31T22:33:44.506Z,97400.06
2022-12-31T22:36:16.325Z,97400.63
2022-12-31T22:38:44.942Z,97403.28
2022-12-31T22:41:14.945Z,97396.88
2022-12-31T22:43:44.677Z,97400.38
2022-12-31T22:46:13.756Z,97395.28
2022-12-31T22:48:42.676Z,97406.78
2022-12-31T22:51:11.560Z,97407.03
2022-12-31T22:53:43.493Z,97410.72
2022-12-31T22:56:13.543Z,97404.84
2022-12-31T22:58:42.466Z,97406.47
2022-12-31T23:01:18.321Z,97400.03
2022-12-31T23:03:47.247Z,97413.09
2022-12-31T23:06:15.879Z,97408.53
2022-12-31T23:09:07.108Z,97410.72
2022-12-31T23:11:35.832Z,97410.16
2022-12-31T23:14:22.729Z,97412.28
2022-12-31T23:17:29.434Z,97406.94
2022-12-31T23:20:14.044Z,97415.53
2022-12-31T23:22:59.660Z,97409.13
2022-12-31T23:25:29.228Z,97420.31
2022-12-31T23:27:57.779Z,97413.56
2022-12-31T23:30:26.260Z,97410.91
2022-12-31T23:32:54.477Z,97410.16
2022-12-31T23:35:22.845Z,97410.72
2022-12-31T23:37:51.371Z,97402.72
2022-12-31T23:40:21.790Z,97408.56
2022-12-31T23:42:51.696Z,97419.78
2022-12-31T23:45:19.866Z,97411.44
2022-12-31T23:47:48.056Z,97414.13
2022-12-31T23:50:16.506Z,97410.66
2022-12-31T23:52:44.735Z,97417.38
2022-12-31T23:55:12.860Z,97423.78
2022-12-31T23:57:41.087Z,97411.78
